createdAt,value
2022-12-16T09:24:42.348Z,20.95
2022-12-16T09:27:28.242Z,15.52
2022-12-16T09:30:13.670Z,17.30
2022-12-16T09:35:45.201Z,9.30
2022-12-16T09:38:30.743Z,11.10
2022-12-16T09:41:18.956Z,8.38
2022-12-16T09:44:18.677Z,11.60
2022-12-16T09:47:11.049Z,8.40
2022-12-16T09:50:20.227Z,9.13
2022-12-16T09:53:12.045Z,6.80
2022-12-16T09:55:59.917Z,7.22
2022-12-16T09:59:02.570Z,5.57
2022-12-16T10:01:53.014Z,5.65
2022-12-16T10:04:42.543Z,6.70
2022-12-16T10:07:34.101Z,6.75
2022-12-16T10:10:27.592Z,9.80
2022-12-16T10:13:22.248Z,4.72
2022-12-16T10:16:14.863Z,4.82
2022-12-16T10:19:11.356Z,5.50
2022-12-16T10:22:04.860Z,5.70
2022-12-16T10:25:01.159Z,4.20
2022-12-16T10:27:53.422Z,4.20
2022-12-16T10:30:38.747Z,7.35
2022-12-16T10:36:35.523Z,5.30
2022-12-16T10:39:24.855Z,3.33
2022-12-16T10:42:12.301Z,4.50
2022-12-16T10:45:08.861Z,5.88
2022-12-16T10:47:54.441Z,3.88
2022-12-16T10:50:41.846Z,4.22
2022-12-16T10:53:32.776Z,4.57
2022-12-16T10:56:32.114Z,3.00
2022-12-16T10:59:21.658Z,6.78
2022-12-16T11:02:15.760Z,3.17
2022-12-16T11:05:01.680Z,5.57
2022-12-16T11:07:55.282Z,3.50
2022-12-16T11:10:46.795Z,3.15
2022-12-16T11:13:37.608Z,3.63
2022-12-16T11:16:30.251Z,5.20
2022-12-16T11:19:16.370Z,4.90
2022-12-16T11:22:01.962Z,2.97
2022-12-16T11:24:49.021Z,4.10
2022-12-16T11:27:46.247Z,4.30
2022-12-16T11:30:37.381Z,3.90
2022-12-16T11:33:30.896Z,7.72
2022-12-16T11:36:24.355Z,3.22
2022-12-16T11:39:11.373Z,3.30
2022-12-16T11:42:01.425Z,5.10
2022-12-16T11:44:52.929Z,3.58
2022-12-16T11:47:46.314Z,3.63
2022-12-16T11:50:35.781Z,5.25
2022-12-16T11:53:25.182Z,5.22
2022-12-16T11:56:16.284Z,6.25
2022-12-16T11:59:06.543Z,5.57
2022-12-16T12:01:56.753Z,5.72
2022-12-16T12:04:53.622Z,4.45
2022-12-16T12:07:45.666Z,5.18
2022-12-16T12:10:49.883Z,4.07
2022-12-16T12:13:56.104Z,4.18
2022-12-16T12:16:54.028Z,6.13
2022-12-16T12:19:46.959Z,6.10
2022-12-16T12:22:45.405Z,5.57
2022-12-16T12:25:36.695Z,4.47
2022-12-16T12:28:33.111Z,4.38
2022-12-16T12:31:25.986Z,6.50
2022-12-16T12:34:23.997Z,5.07
2022-12-16T12:37:15.684Z,5.22
2022-12-16T12:40:05.027Z,5.82
2022-12-16T12:42:57.012Z,5.20
2022-12-16T12:46:14.545Z,5.07
2022-12-16T12:49:05.442Z,9.05
2022-12-16T12:52:02.512Z,5.50
2022-12-16T12:54:53.906Z,5.00
2022-12-16T12:57:44.085Z,7.82
2022-12-16T13:00:36.927Z,5.60
2022-12-16T13:03:28.438Z,8.48
2022-12-16T13:06:14.428Z,8.52
2022-12-16T13:09:14.333Z,9.70
2022-12-16T13:12:40.689Z,10.23
2022-12-16T13:15:26.955Z,4.97
2022-12-16T13:18:37.683Z,9.43
2022-12-16T13:21:46.679Z,8.60
2022-12-16T13:25:20.820Z,6.97
2022-12-16T13:28:14.078Z,6.07
2022-12-16T13:31:20.099Z,9.88
2022-12-16T13:34:10.175Z,7.25
2022-12-16T13:36:55.669Z,5.45
2022-12-16T13:39:45.367Z,7.63
2022-12-16T13:43:07.790Z,8.25
2022-12-16T13:45:58.799Z,9.68
2022-12-16T13:48:54.086Z,13.40
2022-12-16T13:52:24.805Z,10.10
2022-12-16T13:55:35.064Z,14.73
2022-12-16T13:58:46.107Z,15.75
2022-12-16T14:01:35.196Z,17.40
2022-12-16T14:04:21.036Z,16.63
2022-12-16T14:07:08.228Z,20.13
2022-12-16T14:09:55.560Z,26.08
2022-12-16T14:13:13.471Z,22.83
2022-12-16T14:16:14.999Z,22.73
2022-12-16T14:19:10.452Z,20.08
2022-12-16T14:22:03.031Z,21.13
2022-12-16T14:24:48.649Z,19.27
2022-12-16T14:27:37.621Z,21.23
2022-12-16T14:30:35.527Z,18.92
2022-12-16T14:33:35.346Z,19.45
2022-12-16T14:36:20.889Z,16.73
2022-12-16T14:39:07.406Z,16.20
2022-12-16T14:41:52.951Z,17.13
2022-12-16T14:44:41.002Z,13.65
2022-12-16T14:47:36.216Z,12.75
2022-12-16T14:50:22.733Z,12.18
2022-12-16T14:53:08.184Z,9.82
2022-12-16T14:55:54.318Z,12.68
2022-12-16T14:58:47.088Z,12.60
2022-12-16T15:01:37.378Z,11.43
2022-12-16T15:04:43.647Z,12.95
2022-12-16T15:07:34.640Z,18.33
2022-12-16T15:10:21.027Z,14.82
2022-12-16T15:13:07.911Z,16.95
2022-12-16T15:16:00.267Z,14.63
2022-12-16T15:18:50.761Z,16.50
2022-12-16T15:21:37.431Z,16.15
2022-12-16T15:24:27.527Z,14.15
2022-12-16T15:27:41.045Z,16.05
2022-12-16T15:30:57.759Z,14.43
2022-12-16T15:33:44.167Z,14.75
2022-12-16T15:36:44.903Z,13.07
2022-12-16T15:39:40.233Z,15.10
2022-12-16T15:42:38.398Z,16.58
2022-12-16T15:45:34.324Z,10.40
2022-12-16T15:48:31.415Z,12.65
2022-12-16T15:51:16.946Z,12.93
2022-12-16T15:54:09.128Z,11.25
2022-12-16T15:57:02.198Z,11.93
2022-12-16T15:59:50.654Z,12.82
2022-12-16T16:02:39.163Z,12.98
2022-12-16T16:05:30.886Z,11.73
2022-12-16T16:08:16.419Z,11.55
2022-12-16T16:11:03.489Z,12.10
2022-12-16T16:13:48.712Z,11.88
2022-12-16T16:16:35.168Z,9.50
2022-12-16T16:19:20.522Z,13.98
2022-12-16T16:24:51.216Z,11.82
2022-12-16T16:27:38.631Z,11.43
2022-12-16T16:30:25.546Z,12.60
2022-12-16T16:33:11.086Z,11.50
2022-12-16T16:35:56.420Z,16.15
2022-12-16T16:41:33.064Z,11.70
2022-12-16T16:44:20.275Z,8.32
2022-12-16T16:47:05.889Z,10.30
2022-12-16T16:49:53.449Z,11.48
2022-12-16T16:52:41.375Z,14.27
2022-12-16T16:55:33.586Z,9.10
2022-12-16T16:58:19.067Z,9.43
2022-12-16T17:01:06.012Z,9.32
2022-12-16T17:03:51.650Z,9.52
2022-12-16T17:06:37.142Z,12.27
2022-12-16T17:09:22.452Z,6.43
2022-12-16T17:14:53.072Z,7.70
2022-12-16T17:17:39.499Z,7.95
2022-12-16T17:20:26.047Z,5.95
2022-12-16T17:23:11.639Z,7.35
2022-12-16T17:25:57.016Z,5.07
2022-12-16T17:31:29.340Z,8.77
2022-12-16T17:34:16.150Z,6.05
2022-12-16T17:37:01.855Z,5.32
2022-12-16T17:39:47.428Z,5.25
2022-12-16T17:42:32.792Z,8.48
2022-12-16T17:48:03.429Z,3.17
2022-12-16T17:50:50.190Z,4.05
2022-12-16T17:53:35.999Z,4.00
2022-12-16T17:56:22.541Z,3.63
2022-12-16T17:59:09.825Z,4.93
2022-12-16T18:01:56.753Z,4.03
2022-12-16T18:04:42.287Z,4.60
2022-12-16T18:10:14.118Z,3.53
2022-12-16T18:13:00.079Z,3.70
2022-12-16T18:15:45.604Z,3.72
2022-12-16T18:18:31.431Z,4.05
2022-12-16T18:21:27.317Z,4.45
2022-12-16T18:24:19.347Z,2.60
2022-12-16T18:27:04.892Z,3.40
2022-12-16T18:29:50.451Z,3.60
2022-12-16T18:32:35.972Z,3.45
2022-12-16T18:35:21.497Z,3.58
2022-12-16T18:38:06.809Z,5.47
2022-12-16T18:43:39.273Z,3.65
2022-12-16T18:46:27.136Z,3.92
2022-12-16T18:49:12.670Z,3.33
2022-12-16T18:51:58.155Z,2.78
2022-12-16T18:54:43.512Z,3.13
2022-12-16T19:03:00.388Z,3.95
2022-12-16T19:05:45.701Z,4.28
2022-12-16T19:08:31.074Z,2.97
2022-12-16T19:11:16.091Z,5.38
2022-12-16T19:14:02.588Z,3.30
2022-12-16T19:16:48.072Z,4.25
2022-12-16T19:19:33.730Z,4.72
2022-12-16T19:22:19.171Z,2.55
2022-12-16T19:25:05.361Z,2.40
2022-12-16T19:27:50.850Z,3.10
2022-12-16T19:30:37.320Z,2.10
2022-12-16T19:33:22.791Z,2.72
2022-12-16T19:36:08.219Z,1.83
2022-12-16T19:38:56.429Z,3.38
2022-12-16T19:41:41.654Z,4.07
2022-12-16T19:44:27.449Z,2.30
2022-12-16T19:47:16.870Z,2.25
2022-12-16T19:50:02.557Z,4.07
2022-12-16T19:52:48.051Z,2.13
2022-12-16T19:55:33.484Z,3.85
2022-12-16T19:58:18.928Z,4.03
2022-12-16T20:03:47.987Z,2.17
2022-12-16T20:06:33.826Z,2.58
2022-12-16T20:09:19.532Z,2.72
2022-12-16T20:12:05.110Z,1.50
2022-12-16T20:14:50.617Z,3.83
2022-12-16T20:17:37.201Z,2.65
2022-12-16T20:20:30.091Z,3.17
2022-12-16T20:23:29.979Z,2.13
2022-12-16T20:26:17.166Z,2.13
2022-12-16T20:29:02.999Z,2.30
2022-12-16T20:31:49.372Z,2.88
2022-12-16T20:34:34.866Z,3.50
2022-12-16T20:37:22.017Z,3.17
2022-12-16T20:40:07.482Z,2.30
2022-12-16T20:42:53.517Z,2.40
2022-12-16T20:45:39.326Z,3.75
2022-12-16T20:48:25.280Z,3.35
2022-12-16T20:51:14.165Z,2.50
2022-12-16T20:54:00.710Z,2.83
2022-12-16T20:56:46.072Z,2.92
2022-12-16T21:05:22.886Z,4.15
2022-12-16T21:08:08.435Z,3.58
2022-12-16T21:10:56.436Z,3.20
2022-12-16T21:13:41.694Z,4.43
2022-12-16T21:16:27.231Z,3.67
2022-12-16T21:19:12.755Z,2.65
2022-12-16T21:21:58.328Z,3.47
2022-12-16T21:24:43.835Z,3.10
2022-12-16T21:27:27.013Z,4.90
2022-12-16T21:30:12.438Z,3.95
2022-12-16T21:32:57.891Z,3.85
2022-12-16T21:38:29.228Z,4.15
2022-12-16T21:41:14.840Z,4.25
2022-12-16T21:44:01.415Z,3.83
2022-12-16T21:46:46.974Z,3.97
2022-12-16T21:49:32.549Z,3.10
2022-12-16T21:52:18.126Z,3.22
2022-12-16T21:55:03.354Z,3.35
2022-12-16T21:57:48.835Z,4.03
2022-12-16T22:00:35.905Z,6.82
2022-12-16T22:03:21.332Z,5.88
2022-12-16T22:06:06.716Z,3.83
2022-12-16T22:11:37.330Z,6.32
2022-12-16T22:14:28.355Z,4.20
2022-12-16T22:17:15.188Z,5.47
2022-12-16T22:20:00.789Z,4.82
2022-12-16T22:22:46.180Z,5.40
2022-12-16T22:28:16.680Z,5.95
2022-12-16T22:31:02.303Z,5.68
2022-12-16T22:33:49.676Z,5.20
2022-12-16T22:36:35.154Z,5.35
2022-12-16T22:39:26.024Z,5.80
2022-12-16T22:42:11.395Z,4.03
